AirNav   Everest Fuels
 
 938 users online  

1AZ7 S R P Tolleson Center Heliport
Tolleson, Arizona, USA

GOING TO TOLLESON?


FAA INFORMATION EFFECTIVE 07 NOVEMBER 2019

Location

FAA Identifier: 1AZ7
Lat/Long: 33-26-59.1530N 112-13-47.5530W
33-26.985883N 112-13.792550W
33.4497647,-112.2298758
(estimated)
Elevation: 1140 ft. / 347 m (estimated)
Variation: 13E (1985)
From city: 2 miles E of TOLLESON, AZ
Time zone: UTC -7 (year round; does not observe DST)
Zip code: 85043

Heliport Operations

Heliport use: Private use. Permission required prior to landing
Activation date: 01/1987
Control tower: no
ARTCC: ALBUQUERQUE CENTER
FSS: PRESCOTT FLIGHT SERVICE STATION
Attendance: UNATNDD
Segmented circle: no

Heliport Communications

WX AWOS-3 at GEU (6 nm NW): 119.425 (623-877-8609)
WX ASOS at LUF (9 nm NW): 267.4 (623-877-8609)
WX ASOS at PHX (11 nm E): PHONE 602-231-8557
WX ASOS at DVT (16 nm NE): 126.5 (623-587-7764)
WX ASOS at SDL (19 nm NE): PHONE 480-483-3049

Nearby radio navigation aids

VOR radial/distance  VOR name  Freq  Var
PXRr262/13.0PHOENIX VORTAC115.6012E
BXKr076/29.8BUCKEYE VORTAC110.6014E
IWAr274/30.3WILLIE VORTAC113.3013E
GBNr023/37.1GILA BEND VORTAC116.6014E
TFDr323/37.5STANFIELD VORTAC114.8012E

 
NDB name  Hdg/Dist  Freq  Var  ID
CHANDLER285/23.840712ECHD -.-. .... -..

Heliport Services

Runway Information

Helipad H1

Dimensions: 25 x 25 ft. / 8 x 8 m
Surface: asphalt
Traffic pattern: leftleft

Heliport Ownership and Management from official FAA records

Ownership: Privately-owned
Owner: SALT RIVER PROJECT
2601 E. AIRLANE
PHOENIX, AZ 85034
Phone 602-236-2479
Manager: JEFFREY R. CAMPBELL
2601 E. AIRLANE
PHOENIX, AZ 85034
Phone 602-236-2479

Additional Remarks

FOR CD CTC PHOENIX APCH AT 602-306-2565.

Instrument Procedures

There are no published instrument procedures at 1AZ7.

Some nearby airports with instrument procedures:

KGEU - Glendale Municipal Airport (6 nm NW)
KGYR - Phoenix Goodyear Airport (7 nm W)
KLUF - Luke Air Force Base (9 nm NW)
KPHX - Phoenix Sky Harbor International Airport (11 nm E)
KDVT - Phoenix Deer Valley Airport (16 nm NE)
P19 - Stellar Airpark (18 nm SE)
KSDL - Scottsdale Airport (19 nm NE)
 
Loc | Ops | Rwys | IFR | FBO | Links
Com | Nav | Svcs | Stats | Notes
Area around 1AZ7 (S R P Tolleson Center Heliport)
 
Road maps at: MapQuest Bing Google
 
Aerial photo
No photo
 
Sectional chart

 
Airport distance calculator
Flying to S R P Tolleson Center Heliport? Find the distance to fly.

From to 1AZ7

Sunrise and sunset
Times for 21-Nov-2019
 Local
(UTC-7)
 Zulu
(UTC)
Morning civil twilight06:4013:40
Sunrise07:0714:07
Sunset17:2300:23
Evening civil twilight17:4900:49

Current date and time
Zulu (UTC)  22-Nov-2019 02:14:51
Local (UTC-7)  21-Nov-2019 19:14:51
 
METAR
KGEU 
6nm NW 
220157Z 03003KT 10SM FEW040 SCT100 BKN200 12/09 A3002
KGYR 
7nm W 
220147Z 03004KT 10SM FEW040 BKN060 12/09 A3001
KLUF 
8nm NW 
220158Z AUTO 00000KT 10SM CLR 12/10 A2999 RMK AO2 SLP154 T01170104 $
KPHX 
9nm E 
220151Z 00000KT 10SM FEW041 SCT050 SCT120 BKN200 BKN250 12/08 A2999 RMK AO2 SLP150 OCNL LTGIC DSNT E CB DSNT E T01220083
KDVT 
16nm NE 
220153Z 04009KT 10SM OVC080 11/08 A3000 RMK AO2 SLP152 T01110078
KSDL 
19nm NE 
220153Z 00000KT 10SM SCT080 12/08 A3001 RMK AO2 SLP155 T01170083
TAF
KLUF 
8nm NW 
212349Z 2123/2302 VRB06KT 9999 VCSH FEW040 SCT050 BKN100 QNH2994INS BECMG 2202/2203 VRB06KT 9999 NSW BKN050 QNH3003INS BECMG 2211/2212 VRB06KT 9999 SCT040 QNH3012INS TX16/2222Z TN10/2214Z
KPHX 
9nm E 
212212Z 2122/2224 12006KT P6SM VCTS BKN040CB TEMPO 2122/2124 22010G20KT 5SM TSRA BR OVC040CB FM220000 21006KT P6SM SCT040 SCT070 FM220200 VRB05KT P6SM FEW040 SCT060 BKN070 FM220700 10005KT P6SM SCT040 SCT060
KDVT 
16nm NE 
211724Z 2118/2218 10006KT 5SM -SHRA BR FEW020 BKN040 OVC050 FM212100 22008KT P6SM VCSH FEW035 SCT050 BKN060 FM220200 VRB05KT P6SM SCT040 BKN070
KSDL 
19nm NE 
211724Z 2118/2218 14005KT 5SM -SHRA BR FEW020 BKN040 OVC050 FM212200 23007KT P6SM VCSH FEW025 SCT040 BKN050 FM220200 VRB04KT P6SM SCT035 BKN060
NOTAMs
Click for the latest NOTAMs
NOTAMs are issued by the DoD/FAA and will open in a separate window not controlled by AirNav.

 

 
 

Would you like to see your business listed on this page?

 If your business provides an interesting product or service to pilots, flight crews, aircraft, or users of the S R P Tolleson Center Heliport, you should consider listing it here.  To start the listing process, click on the button below
 
Add a business
 

Other Pages about S R P Tolleson Center Heliport

Update a link
 
Copyright © AirNav, LLC. All rights reserved. Privacy Policy  Contact